createdAt,value
2019-03-17T00:00:29.774Z,3.55
2019-03-17T00:03:00.767Z,3.56
2019-03-17T00:05:31.724Z,3.53
2019-03-17T00:08:02.755Z,3.48
2019-03-17T00:10:33.716Z,3.51
2019-03-17T00:13:04.745Z,3.47
2019-03-17T00:15:35.752Z,3.48
2019-03-17T00:18:06.683Z,3.48
2019-03-17T00:20:37.715Z,3.52
2019-03-17T00:23:08.664Z,3.49
2019-03-17T00:25:39.532Z,3.44
2019-03-17T00:28:10.640Z,3.43
2019-03-17T00:30:41.800Z,3.38
2019-03-17T00:33:12.749Z,3.41
2019-03-17T00:35:43.864Z,3.39
2019-03-17T00:38:14.800Z,3.37
2019-03-17T00:40:47.428Z,3.32
2019-03-17T00:43:25.988Z,3.34
2019-03-17T00:45:56.914Z,3.34
2019-03-17T00:48:27.916Z,3.28
2019-03-17T00:50:58.867Z,3.25
2019-03-17T00:53:29.824Z,3.24
2019-03-17T00:56:00.844Z,3.20
2019-03-17T00:58:31.851Z,3.14
2019-03-17T01:01:02.791Z,3.07
2019-03-17T01:03:33.971Z,3.16
2019-03-17T01:06:05.074Z,3.21
2019-03-17T01:08:36.022Z,3.24
2019-03-17T01:11:07.055Z,3.27
2019-03-17T01:13:37.958Z,3.17
2019-03-17T01:16:08.928Z,3.10
2019-03-17T01:18:39.830Z,3.07
2019-03-17T01:21:10.772Z,3.18
2019-03-17T01:23:41.696Z,3.22
2019-03-17T01:26:12.588Z,3.17
2019-03-17T01:28:43.429Z,3.10
2019-03-17T01:31:14.608Z,3.05
2019-03-17T01:33:45.523Z,3.05
2019-03-17T01:36:16.503Z,3.03
2019-03-17T01:38:47.526Z,3.04
2019-03-17T01:41:18.389Z,2.97
2019-03-17T01:43:49.279Z,2.98
2019-03-17T01:46:20.241Z,2.94
2019-03-17T01:48:51.340Z,2.88
2019-03-17T01:51:22.243Z,2.82
2019-03-17T01:53:53.270Z,2.79
2019-03-17T01:56:24.205Z,2.76
2019-03-17T01:58:55.303Z,2.67
2019-03-17T02:01:26.210Z,2.58
2019-03-17T02:03:57.156Z,2.60
2019-03-17T02:06:28.121Z,2.60
2019-03-17T02:08:59.048Z,2.58
2019-03-17T02:11:30.021Z,2.59
2019-03-17T02:14:00.898Z,2.60
2019-03-17T02:16:31.786Z,2.57
2019-03-17T02:19:02.744Z,2.56
2019-03-17T02:21:33.737Z,2.59
2019-03-17T02:24:04.842Z,2.59
2019-03-17T02:26:35.743Z,2.53
2019-03-17T02:29:06.704Z,2.54
2019-03-17T02:31:37.611Z,2.58
2019-03-17T02:34:11.644Z,2.58
2019-03-17T02:36:41.065Z,2.56
2019-03-17T02:39:12.038Z,2.51
2019-03-17T02:41:42.949Z,2.50
2019-03-17T02:44:13.890Z,2.50
2019-03-17T02:46:44.807Z,2.49
2019-03-17T02:49:15.900Z,2.50
2019-03-17T02:51:46.772Z,2.44
2019-03-17T02:54:17.688Z,2.41
2019-03-17T02:56:48.634Z,2.42
2019-03-17T02:59:19.938Z,2.46
2019-03-17T03:01:50.878Z,2.47
2019-03-17T03:04:21.842Z,2.48
2019-03-17T03:06:52.712Z,2.52
2019-03-17T03:09:23.634Z,2.50
2019-03-17T03:11:54.613Z,2.56
2019-03-17T03:14:25.552Z,2.62
2019-03-17T03:16:56.474Z,2.65
2019-03-17T03:19:27.429Z,2.65
2019-03-17T03:21:58.382Z,2.67
2019-03-17T03:24:29.375Z,2.75
2019-03-17T03:27:00.431Z,2.72
2019-03-17T03:29:31.428Z,2.68
2019-03-17T03:32:02.283Z,2.72
2019-03-17T03:34:33.167Z,2.69
2019-03-17T03:37:04.022Z,2.69
2019-03-17T03:39:34.890Z,2.79
2019-03-17T03:42:05.983Z,2.90
2019-03-17T03:44:36.980Z,2.93
2019-03-17T03:47:08.036Z,2.93
2019-03-17T03:49:39.065Z,3.14
2019-03-17T03:52:10.014Z,3.14
2019-03-17T03:54:40.909Z,3.25
2019-03-17T03:57:11.978Z,3.38
2019-03-17T03:59:42.916Z,3.53
2019-03-17T04:02:13.889Z,3.56
2019-03-17T04:04:44.901Z,3.73
2019-03-17T04:07:15.815Z,3.88
2019-03-17T04:09:46.720Z,3.96
2019-03-17T04:12:17.797Z,3.91
2019-03-17T04:14:48.655Z,3.88
2019-03-17T04:17:19.595Z,3.82
2019-03-17T04:19:50.641Z,3.76
2019-03-17T04:22:21.636Z,3.68
2019-03-17T04:24:52.554Z,3.80
2019-03-17T04:27:23.420Z,3.94
2019-03-17T04:29:54.537Z,3.99
2019-03-17T04:32:25.395Z,4.04
2019-03-17T04:34:56.395Z,4.08
2019-03-17T04:37:27.330Z,4.01
2019-03-17T04:39:58.212Z,4.03
2019-03-17T04:42:29.080Z,4.13
2019-03-17T04:44:59.958Z,4.10
2019-03-17T04:47:30.922Z,4.04
2019-03-17T04:50:01.835Z,4.16
2019-03-17T04:52:32.791Z,4.10
2019-03-17T04:55:04.308Z,3.99
2019-03-17T04:57:35.325Z,3.94
2019-03-17T05:00:14.004Z,3.91
2019-03-17T05:02:45.097Z,3.92
2019-03-17T05:05:16.146Z,3.87
2019-03-17T05:07:47.186Z,3.83
2019-03-17T05:10:18.047Z,3.83
2019-03-17T05:12:49.054Z,3.75
2019-03-17T05:15:19.963Z,3.70
2019-03-17T05:17:50.900Z,3.63
2019-03-17T05:20:21.974Z,3.56
2019-03-17T05:22:53.316Z,3.54
2019-03-17T05:25:24.360Z,3.45
2019-03-17T05:27:55.362Z,3.38
2019-03-17T05:30:26.267Z,3.33
2019-03-17T05:32:57.173Z,3.23
2019-03-17T05:35:28.055Z,3.26
2019-03-17T05:37:59.020Z,3.31
2019-03-17T05:40:29.901Z,3.27
2019-03-17T05:43:00.768Z,3.19
2019-03-17T05:45:31.671Z,3.17
2019-03-17T05:48:02.718Z,3.12
2019-03-17T05:50:34.649Z,3.08
2019-03-17T05:53:07.345Z,3.03
2019-03-17T05:55:38.303Z,3.01
2019-03-17T05:58:09.168Z,2.97
2019-03-17T06:00:40.032Z,2.98
2019-03-17T06:03:11.061Z,3.02
2019-03-17T06:05:42.167Z,3.13
2019-03-17T06:08:13.101Z,3.34
2019-03-17T06:10:44.164Z,3.64
2019-03-17T06:13:15.101Z,3.87
2019-03-17T06:15:46.307Z,4.07
2019-03-17T06:18:17.240Z,4.52
2019-03-17T06:20:48.192Z,4.93
2019-03-17T06:23:19.091Z,5.37
2019-03-17T06:25:50.076Z,6.05
2019-03-17T06:28:21.710Z,6.12
2019-03-17T06:30:52.762Z,6.00
2019-03-17T06:33:23.764Z,6.09
2019-03-17T06:35:54.731Z,5.97
2019-03-17T06:38:25.679Z,6.06
2019-03-17T06:40:56.669Z,6.15
2019-03-17T06:43:27.559Z,6.24
2019-03-17T06:45:58.595Z,6.46
2019-03-17T06:48:29.641Z,6.58
2019-03-17T06:51:00.624Z,6.69
2019-03-17T06:53:31.506Z,6.66
2019-03-17T06:56:02.883Z,6.71
2019-03-17T06:58:33.903Z,6.79
2019-03-17T07:01:04.911Z,6.79
2019-03-17T07:03:35.986Z,6.89
2019-03-17T07:06:07.165Z,7.02
2019-03-17T07:08:40.269Z,7.25
2019-03-17T07:11:11.632Z,7.55
2019-03-17T07:13:42.583Z,8.05
2019-03-17T07:16:13.664Z,8.46
2019-03-17T07:18:44.745Z,8.68
2019-03-17T07:21:15.814Z,8.89
2019-03-17T07:23:47.078Z,9.02
2019-03-17T07:26:19.676Z,9.13
2019-03-17T07:28:50.618Z,9.26
2019-03-17T07:31:21.783Z,9.39
2019-03-17T07:33:55.935Z,9.58
2019-03-17T07:36:29.586Z,9.77
2019-03-17T07:39:11.082Z,10.05
2019-03-17T07:41:33.033Z,10.27
2019-03-17T07:44:04.073Z,10.37
2019-03-17T07:46:41.784Z,10.46
2019-03-17T07:49:16.034Z,10.65
2019-03-17T07:51:47.920Z,11.09
2019-03-17T07:54:18.787Z,11.85
2019-03-17T07:56:52.322Z,12.11
2019-03-17T07:59:26.107Z,12.03
2019-03-17T08:01:57.007Z,12.30
2019-03-17T08:04:41.614Z,12.54
2019-03-17T08:07:02.286Z,12.66
2019-03-17T08:09:33.285Z,12.73
2019-03-17T08:12:04.842Z,13.22
2019-03-17T08:14:35.874Z,13.51
2019-03-17T08:17:08.420Z,13.18
2019-03-17T08:19:42.264Z,13.21
2019-03-17T08:22:13.297Z,13.47
2019-03-17T08:24:44.243Z,13.82
2019-03-17T08:27:15.342Z,14.08
2019-03-17T08:29:46.293Z,14.55
2019-03-17T08:32:20.449Z,14.56
2019-03-17T08:34:51.595Z,15.27
2019-03-17T08:37:22.537Z,14.91
2019-03-17T08:39:57.519Z,15.15
2019-03-17T08:42:28.547Z,15.01
2019-03-17T08:44:59.537Z,14.86
2019-03-17T08:47:30.574Z,14.46
2019-03-17T08:50:01.515Z,14.86
2019-03-17T08:52:34.285Z,15.69
2019-03-17T08:55:06.826Z,15.78
2019-03-17T08:57:38.372Z,15.52
2019-03-17T09:00:12.012Z,15.49
2019-03-17T09:03:00.470Z,15.59
2019-03-17T09:05:31.406Z,16.28
2019-03-17T09:08:34.295Z,16.29
2019-03-17T09:10:55.562Z,16.84
2019-03-17T09:13:26.657Z,16.94
2019-03-17T09:15:57.772Z,16.99
2019-03-17T09:18:28.656Z,16.69
2019-03-17T09:21:05.154Z,16.86
2019-03-17T09:23:34.105Z,16.64
2019-03-17T09:26:05.270Z,16.64
2019-03-17T09:28:36.353Z,16.75
2019-03-17T09:31:08.484Z,16.86
2019-03-17T09:33:40.074Z,17.17
2019-03-17T09:36:13.316Z,16.53
2019-03-17T09:38:47.409Z,17.15
2019-03-17T09:41:17.560Z,16.96
2019-03-17T09:43:48.473Z,17.69
2019-03-17T09:46:19.426Z,18.05
2019-03-17T09:48:50.602Z,18.68
2019-03-17T09:51:21.622Z,18.99
2019-03-17T09:53:52.591Z,19.47
2019-03-17T09:56:23.543Z,19.31
2019-03-17T09:58:54.591Z,19.16
2019-03-17T10:01:25.555Z,19.15
2019-03-17T10:03:56.507Z,18.86
2019-03-17T10:06:27.562Z,19.36
2019-03-17T10:09:00.264Z,19.66
2019-03-17T10:11:31.562Z,19.44
2019-03-17T10:14:02.605Z,19.31
2019-03-17T10:16:33.681Z,19.48
2019-03-17T10:19:04.622Z,20.14
2019-03-17T10:21:37.306Z,20.11
2019-03-17T10:24:08.177Z,19.76
2019-03-17T10:26:39.128Z,19.50
2019-03-17T10:29:10.089Z,19.56
2019-03-17T10:31:41.156Z,19.11
2019-03-17T10:34:12.128Z,18.22
2019-03-17T10:36:43.017Z,19.15
2019-03-17T10:39:13.914Z,19.92
2019-03-17T10:41:44.848Z,19.38
2019-03-17T10:44:15.831Z,19.16
2019-03-17T10:46:47.247Z,19.13
2019-03-17T10:49:18.232Z,19.76
2019-03-17T10:51:49.319Z,20.42
2019-03-17T10:54:20.318Z,20.33
2019-03-17T10:56:51.255Z,19.85
2019-03-17T10:59:22.283Z,19.92
2019-03-17T11:01:53.237Z,20.83
2019-03-17T11:04:24.288Z,21.00
2019-03-17T11:06:55.181Z,21.31
2019-03-17T11:09:26.158Z,21.63
2019-03-17T11:11:57.250Z,21.48
2019-03-17T11:14:28.199Z,21.27
2019-03-17T11:16:59.269Z,22.11
2019-03-17T11:19:30.371Z,22.35
2019-03-17T11:22:01.384Z,22.68
2019-03-17T11:24:32.229Z,22.12
2019-03-17T11:27:03.122Z,22.61
2019-03-17T11:29:34.151Z,23.44
2019-03-17T11:32:06.683Z,23.61
2019-03-17T11:34:37.736Z,22.92
2019-03-17T11:37:08.642Z,22.81
2019-03-17T11:39:39.661Z,22.82
2019-03-17T11:42:10.762Z,23.52
2019-03-17T11:44:41.788Z,22.69
2019-03-17T11:47:12.813Z,22.72
2019-03-17T11:49:46.070Z,21.92
2019-03-17T11:52:16.473Z,21.46
2019-03-17T11:54:47.503Z,22.06
2019-03-17T11:57:18.625Z,21.95
2019-03-17T11:59:49.596Z,21.70
2019-03-17T12:02:26.427Z,22.52
2019-03-17T12:04:53.339Z,20.84
2019-03-17T12:07:24.351Z,21.52
2019-03-17T12:09:55.311Z,23.02
2019-03-17T12:12:26.177Z,24.29
2019-03-17T12:14:57.154Z,24.93
2019-03-17T12:17:28.066Z,25.11
2019-03-17T12:19:58.924Z,22.62
2019-03-17T12:22:32.799Z,22.01
2019-03-17T12:25:03.881Z,21.17
2019-03-17T12:27:34.840Z,20.73
2019-03-17T12:30:11.407Z,19.26
2019-03-17T12:32:42.500Z,19.29
2019-03-17T12:35:13.733Z,20.60
2019-03-17T12:37:44.843Z,21.23
2019-03-17T12:40:15.830Z,20.91
2019-03-17T12:42:46.811Z,20.51
2019-03-17T12:45:18.055Z,20.50
2019-03-17T12:47:48.931Z,21.38
2019-03-17T12:50:21.160Z,21.06
2019-03-17T12:52:52.068Z,21.17
2019-03-17T12:55:23.012Z,20.42
2019-03-17T12:57:53.959Z,20.23
2019-03-17T13:00:26.298Z,20.89
2019-03-17T13:02:57.152Z,20.91
2019-03-17T13:05:28.213Z,21.45
2019-03-17T13:07:59.177Z,21.18
2019-03-17T13:10:30.144Z,20.72
2019-03-17T13:13:01.142Z,21.16
2019-03-17T13:15:32.089Z,20.67
2019-03-17T13:18:03.069Z,20.18
2019-03-17T13:20:34.100Z,20.56
2019-03-17T13:23:05.045Z,19.65
2019-03-17T13:25:36.140Z,18.40
2019-03-17T13:28:07.152Z,17.88
2019-03-17T13:30:38.162Z,17.42
2019-03-17T13:33:09.138Z,16.77
2019-03-17T13:35:40.100Z,16.44
2019-03-17T13:38:11.055Z,16.26
2019-03-17T13:40:42.075Z,16.09
2019-03-17T13:43:13.092Z,15.71
2019-03-17T13:45:44.130Z,15.47
2019-03-17T13:48:15.353Z,15.42
2019-03-17T13:50:46.300Z,15.27
2019-03-17T13:53:17.280Z,15.25
2019-03-17T13:55:48.254Z,15.19
2019-03-17T13:58:19.172Z,15.17
2019-03-17T14:00:50.137Z,15.18
2019-03-17T14:03:21.062Z,15.16
2019-03-17T14:05:52.143Z,15.08
2019-03-17T14:08:23.035Z,14.95
2019-03-17T14:10:54.004Z,14.78
2019-03-17T14:13:25.329Z,14.70
2019-03-17T14:15:56.365Z,14.62
2019-03-17T14:18:27.298Z,14.42
2019-03-17T14:20:58.337Z,14.37
2019-03-17T14:23:29.386Z,14.24
2019-03-17T14:26:00.460Z,14.23
2019-03-17T14:28:31.437Z,14.24
2019-03-17T14:31:02.544Z,14.39
2019-03-17T14:33:33.635Z,14.27
2019-03-17T14:36:04.726Z,14.26
2019-03-17T14:38:35.764Z,14.23
2019-03-17T14:41:06.947Z,14.18
2019-03-17T14:43:38.001Z,14.05
2019-03-17T14:46:08.958Z,13.93
2019-03-17T14:48:39.932Z,13.60
2019-03-17T14:51:10.949Z,13.27
2019-03-17T14:53:41.867Z,12.98
2019-03-17T14:56:12.891Z,12.61
2019-03-17T14:58:43.853Z,12.33
2019-03-17T15:01:14.819Z,11.76
2019-03-17T15:03:45.722Z,10.86
2019-03-17T15:06:16.640Z,10.27
2019-03-17T15:08:47.549Z,10.02
2019-03-17T15:11:18.427Z,9.92
2019-03-17T15:13:49.499Z,9.06
2019-03-17T15:16:20.651Z,8.30
2019-03-17T15:18:51.711Z,7.60
2019-03-17T15:21:22.744Z,7.26
2019-03-17T15:23:53.769Z,7.12
2019-03-17T15:26:24.731Z,7.02
2019-03-17T15:28:55.767Z,6.82
2019-03-17T15:31:26.683Z,6.75
2019-03-17T15:33:57.639Z,6.68
2019-03-17T15:36:28.546Z,6.55
2019-03-17T15:38:59.517Z,6.39
2019-03-17T15:41:30.669Z,6.30
2019-03-17T15:44:01.710Z,6.28
2019-03-17T15:46:32.638Z,6.36
2019-03-17T15:49:03.591Z,6.34
2019-03-17T15:51:34.629Z,6.34
2019-03-17T15:54:05.630Z,6.29
2019-03-17T15:56:36.709Z,6.27
2019-03-17T15:59:07.726Z,6.22
2019-03-17T16:01:38.883Z,6.21
2019-03-17T16:04:09.835Z,6.17
2019-03-17T16:06:41.368Z,6.19
2019-03-17T16:09:12.405Z,6.13
2019-03-17T16:11:43.533Z,6.02
2019-03-17T16:14:14.587Z,6.02
2019-03-17T16:16:45.751Z,5.89
2019-03-17T16:19:18.006Z,5.90
2019-03-17T16:21:48.861Z,5.86
2019-03-17T16:24:19.899Z,5.78
2019-03-17T16:26:50.915Z,5.76
2019-03-17T16:29:21.779Z,5.71
2019-03-17T16:31:52.685Z,5.67
2019-03-17T16:34:23.585Z,5.69
2019-03-17T16:36:54.629Z,5.67
2019-03-17T16:39:25.621Z,5.66
2019-03-17T16:41:56.640Z,5.70
2019-03-17T16:44:27.717Z,5.79
2019-03-17T16:46:58.761Z,5.82
2019-03-17T16:49:29.903Z,5.82
2019-03-17T16:52:00.818Z,5.82
2019-03-17T16:54:31.687Z,5.79
2019-03-17T16:57:02.583Z,5.85
2019-03-17T16:59:33.573Z,5.83
2019-03-17T17:02:04.759Z,5.87
2019-03-17T17:04:35.947Z,5.87
2019-03-17T17:07:07.084Z,5.87
2019-03-17T17:09:38.307Z,5.87
2019-03-17T17:12:09.692Z,5.90
2019-03-17T17:14:40.586Z,5.94
2019-03-17T17:17:11.636Z,5.96
2019-03-17T17:19:42.806Z,6.03
2019-03-17T17:22:14.219Z,6.09
2019-03-17T17:24:46.858Z,6.15
2019-03-17T17:27:20.486Z,6.19
2019-03-17T17:29:54.060Z,6.21
2019-03-17T17:32:29.249Z,6.21
2019-03-17T17:34:59.446Z,6.18
2019-03-17T17:37:30.984Z,6.21
2019-03-17T17:40:02.022Z,6.21
2019-03-17T17:42:32.971Z,6.20
2019-03-17T17:45:05.239Z,6.21
2019-03-17T17:47:36.252Z,6.18
2019-03-17T17:50:14.669Z,6.19
2019-03-17T17:52:46.131Z,6.15
2019-03-17T17:55:17.231Z,6.19
2019-03-17T17:57:52.752Z,6.18
2019-03-17T18:00:30.901Z,6.20
2019-03-17T18:03:04.806Z,6.22
2019-03-17T18:05:35.774Z,6.18
2019-03-17T18:08:06.772Z,6.16
2019-03-17T18:10:39.681Z,6.15
2019-03-17T18:13:10.688Z,6.13
2019-03-17T18:15:41.686Z,6.16
2019-03-17T18:18:12.733Z,6.15
2019-03-17T18:20:44.096Z,6.12
2019-03-17T18:23:18.101Z,6.16
2019-03-17T18:25:47.770Z,6.18
2019-03-17T18:28:19.614Z,6.18
2019-03-17T18:30:50.723Z,6.20
2019-03-17T18:33:21.753Z,6.23
2019-03-17T18:35:53.270Z,6.20
2019-03-17T18:38:24.245Z,6.19
2019-03-17T18:40:55.584Z,6.18
2019-03-17T18:43:37.202Z,6.18
2019-03-17T18:46:08.272Z,6.15
2019-03-17T18:48:39.246Z,6.21
2019-03-17T18:51:13.514Z,6.26
2019-03-17T18:53:47.500Z,6.28
2019-03-17T18:56:21.380Z,6.29
2019-03-17T18:58:52.338Z,6.27
2019-03-17T19:01:23.384Z,6.28
2019-03-17T19:03:54.599Z,6.25
2019-03-17T19:06:25.472Z,6.22
2019-03-17T19:08:56.463Z,6.25
2019-03-17T19:11:27.580Z,6.28
2019-03-17T19:13:58.573Z,6.27
2019-03-17T19:16:29.446Z,6.29
2019-03-17T19:19:00.575Z,6.30
2019-03-17T19:21:31.730Z,6.35
2019-03-17T19:24:02.714Z,6.33
2019-03-17T19:26:33.690Z,6.34
2019-03-17T19:29:04.735Z,6.37
2019-03-17T19:31:36.404Z,6.41
2019-03-17T19:34:07.599Z,6.41
2019-03-17T19:36:38.574Z,6.39
2019-03-17T19:39:09.638Z,6.39
2019-03-17T19:41:40.659Z,6.39
2019-03-17T19:44:11.609Z,6.36
2019-03-17T19:46:44.153Z,6.33
2019-03-17T19:49:15.027Z,6.34
2019-03-17T19:51:45.903Z,6.35
2019-03-17T19:54:17.245Z,6.32
2019-03-17T19:56:51.331Z,6.29
2019-03-17T19:59:24.723Z,6.32
2019-03-17T20:01:57.253Z,6.32
2019-03-17T20:04:32.505Z,6.29
2019-03-17T20:07:01.009Z,6.29
2019-03-17T20:09:32.032Z,6.31
2019-03-17T20:12:04.171Z,6.29
2019-03-17T20:14:35.562Z,6.27
2019-03-17T20:17:06.602Z,6.28
2019-03-17T20:19:37.617Z,6.22
2019-03-17T20:22:08.578Z,6.17
2019-03-17T20:24:39.500Z,6.15
2019-03-17T20:27:10.461Z,6.10
2019-03-17T20:29:41.573Z,6.04
2019-03-17T20:32:12.557Z,6.02
2019-03-17T20:34:43.501Z,6.00
2019-03-17T20:37:14.665Z,6.04
2019-03-17T20:39:45.671Z,5.99
2019-03-17T20:42:16.551Z,5.92
2019-03-17T20:44:47.654Z,5.92
2019-03-17T20:47:18.560Z,5.90
2019-03-17T20:49:51.258Z,5.87
2019-03-17T20:52:22.161Z,5.85
2019-03-17T20:54:53.118Z,5.82
2019-03-17T20:57:23.996Z,5.86
2019-03-17T20:59:55.130Z,5.85
2019-03-17T21:02:26.101Z,5.84
2019-03-17T21:04:56.987Z,5.85
2019-03-17T21:07:48.121Z,5.85
2019-03-17T21:10:31.872Z,5.86
2019-03-17T21:13:02.765Z,5.83
2019-03-17T21:15:33.710Z,5.78
2019-03-17T21:18:04.653Z,5.72
2019-03-17T21:20:35.696Z,5.70
2019-03-17T21:23:06.640Z,5.67
2019-03-17T21:25:37.592Z,5.65
2019-03-17T21:28:08.488Z,5.70
2019-03-17T21:30:39.412Z,5.70
2019-03-17T21:33:10.309Z,5.70
2019-03-17T21:35:41.190Z,5.71
2019-03-17T21:38:12.066Z,5.73
2019-03-17T21:41:01.392Z,5.75
2019-03-17T21:43:15.795Z,5.75
2019-03-17T21:45:46.704Z,5.78
2019-03-17T21:48:17.546Z,5.78
2019-03-17T21:50:48.499Z,5.78
2019-03-17T21:53:19.560Z,5.78
2019-03-17T21:55:50.592Z,5.79
2019-03-17T21:58:21.528Z,5.76
2019-03-17T22:00:52.474Z,5.75
2019-03-17T22:03:23.609Z,5.73
2019-03-17T22:05:54.617Z,5.71
2019-03-17T22:08:25.684Z,5.69
2019-03-17T22:10:56.616Z,5.67
2019-03-17T22:13:27.542Z,5.66
2019-03-17T22:15:58.554Z,5.65
2019-03-17T22:18:30.008Z,5.64
2019-03-17T22:21:01.166Z,5.66
2019-03-17T22:23:32.355Z,5.64
2019-03-17T22:26:03.296Z,5.65
2019-03-17T22:28:34.223Z,5.65
2019-03-17T22:31:05.170Z,5.60
2019-03-17T22:33:36.072Z,5.55
2019-03-17T22:36:06.927Z,5.53
2019-03-17T22:38:37.827Z,5.49
2019-03-17T22:41:08.693Z,5.46
2019-03-17T22:43:39.644Z,5.45
2019-03-17T22:46:10.585Z,5.45
2019-03-17T22:48:41.636Z,5.47
2019-03-17T22:51:12.586Z,5.50
2019-03-17T22:53:43.438Z,5.53
2019-03-17T22:56:14.394Z,5.50
2019-03-17T22:58:45.392Z,5.55
2019-03-17T23:01:16.630Z,5.56
2019-03-17T23:03:47.616Z,5.49
2019-03-17T23:06:18.543Z,5.40
2019-03-17T23:08:49.559Z,5.34
2019-03-17T23:11:20.500Z,5.33
2019-03-17T23:13:51.392Z,5.30
2019-03-17T23:16:22.339Z,5.31
2019-03-17T23:18:53.326Z,5.28
2019-03-17T23:21:24.292Z,5.23
2019-03-17T23:23:55.287Z,5.21
2019-03-17T23:26:26.153Z,5.16
2019-03-17T23:28:57.058Z,5.11
2019-03-17T23:31:28.099Z,5.10
2019-03-17T23:33:58.949Z,5.09
2019-03-17T23:36:29.892Z,5.06
2019-03-17T23:39:00.859Z,5.06
2019-03-17T23:41:31.847Z,5.13
2019-03-17T23:44:02.732Z,5.12
2019-03-17T23:46:33.705Z,5.06
2019-03-17T23:49:04.725Z,5.02
2019-03-17T23:51:35.818Z,4.96
2019-03-17T23:54:06.849Z,4.85
2019-03-17T23:56:39.277Z,4.75
2019-03-17T23:59:10.225Z,4.69
